sensor_id;sensor_type;location;lat;lon;timestamp;P1;durP1;ratioP1;P2;durP2;ratioP2
2107;SDS011;1060;52.492;13.388;2023-09-18T00:01:46;13.33;;;12.30;;
2107;SDS011;1060;52.492;13.388;2023-09-18T00:04:12;15.23;;;14.13;;
2107;SDS011;1060;52.492;13.388;2023-09-18T00:06:38;13.57;;;12.53;;
2107;SDS011;1060;52.492;13.388;2023-09-18T00:09:04;13.90;;;12.70;;
2107;SDS011;1060;52.492;13.388;2023-09-18T00:11:36;15.37;;;14.20;;
2107;SDS011;1060;52.492;13.388;2023-09-18T00:14:03;13.37;;;12.20;;
2107;SDS011;1060;52.492;13.388;2023-09-18T00:16:29;12.27;;;11.20;;
2107;SDS011;1060;52.492;13.388;2023-09-18T00:18:55;14.33;;;13.27;;
2107;SDS011;1060;52.492;13.388;2023-09-18T00:21:21;14.40;;;13.13;;
2107;SDS011;1060;52.492;13.388;2023-09-18T00:23:50;14.80;;;13.60;;
2107;SDS011;1060;52.492;13.388;2023-09-18T00:26:16;14.53;;;13.43;;
2107;SDS011;1060;52.492;13.388;2023-09-18T00:28:46;14.80;;;13.70;;
2107;SDS011;1060;52.492;13.388;2023-09-18T00:31:12;14.00;;;12.90;;
2107;SDS011;1060;52.492;13.388;2023-09-18T00:33:38;13.67;;;12.67;;
2107;SDS011;1060;52.492;13.388;2023-09-18T00:36:05;13.30;;;12.40;;
2107;SDS011;1060;52.492;13.388;2023-09-18T00:38:31;12.57;;;11.67;;
2107;SDS011;1060;52.492;13.388;2023-09-18T00:40:57;13.00;;;12.00;;
2107;SDS011;1060;52.492;13.388;2023-09-18T00:43:23;14.33;;;12.97;;
2107;SDS011;1060;52.492;13.388;2023-09-18T00:45:49;14.80;;;13.70;;
2107;SDS011;1060;52.492;13.388;2023-09-18T00:48:16;16.20;;;14.80;;
2107;SDS011;1060;52.492;13.388;2023-09-18T00:50:45;12.87;;;11.87;;
2107;SDS011;1060;52.492;13.388;2023-09-18T00:53:19;12.50;;;11.60;;
2107;SDS011;1060;52.492;13.388;2023-09-18T00:55:46;14.47;;;13.17;;
2107;SDS011;1060;52.492;13.388;2023-09-18T00:58:12;13.00;;;12.00;;
2107;SDS011;1060;52.492;13.388;2023-09-18T01:00:39;13.90;;;12.70;;
2107;SDS011;1060;52.492;13.388;2023-09-18T01:03:06;14.00;;;12.83;;
2107;SDS011;1060;52.492;13.388;2023-09-18T01:05:32;14.00;;;12.77;;
2107;SDS011;1060;52.492;13.388;2023-09-18T01:07:58;12.43;;;11.40;;
2107;SDS011;1060;52.492;13.388;2023-09-18T01:10:27;12.20;;;11.30;;
2107;SDS011;1060;52.492;13.388;2023-09-18T01:13:00;13.33;;;12.27;;
2107;SDS011;1060;52.492;13.388;2023-09-18T01:15:30;11.77;;;10.87;;
2107;SDS011;1060;52.492;13.388;2023-09-18T01:17:58;12.37;;;11.37;;
2107;SDS011;1060;52.492;13.388;2023-09-18T01:20:24;13.03;;;11.93;;
2107;SDS011;1060;52.492;13.388;2023-09-18T01:22:51;11.70;;;10.80;;
2107;SDS011;1060;52.492;13.388;2023-09-18T01:25:17;12.23;;;11.33;;
2107;SDS011;1060;52.492;13.388;2023-09-18T01:27:43;12.33;;;11.50;;
2107;SDS011;1060;52.492;13.388;2023-09-18T01:30:09;11.93;;;10.93;;
2107;SDS011;1060;52.492;13.388;2023-09-18T01:32:36;12.37;;;11.47;;
2107;SDS011;1060;52.492;13.388;2023-09-18T01:35:03;12.60;;;11.60;;
2107;SDS011;1060;52.492;13.388;2023-09-18T01:37:33;11.73;;;10.83;;
2107;SDS011;1060;52.492;13.388;2023-09-18T01:40:03;13.00;;;12.00;;
2107;SDS011;1060;52.492;13.388;2023-09-18T01:42:32;12.70;;;11.80;;
2107;SDS011;1060;52.492;13.388;2023-09-18T01:44:59;12.70;;;11.70;;
2107;SDS011;1060;52.492;13.388;2023-09-18T01:47:25;11.83;;;10.93;;
2107;SDS011;1060;52.492;13.388;2023-09-18T01:49:52;11.67;;;10.87;;
2107;SDS011;1060;52.492;13.388;2023-09-18T01:52:18;11.90;;;11.00;;
2107;SDS011;1060;52.492;13.388;2023-09-18T01:54:47;13.20;;;12.30;;
2107;SDS011;1060;52.492;13.388;2023-09-18T01:57:13;11.57;;;10.47;;
2107;SDS011;1060;52.492;13.388;2023-09-18T01:59:39;12.47;;;11.30;;
2107;SDS011;1060;52.492;13.388;2023-09-18T02:02:06;11.37;;;10.47;;
2107;SDS011;1060;52.492;13.388;2023-09-18T02:04:37;12.53;;;11.63;;
2107;SDS011;1060;52.492;13.388;2023-09-18T02:07:03;12.30;;;11.30;;
2107;SDS011;1060;52.492;13.388;2023-09-18T02:09:29;12.63;;;11.77;;
2107;SDS011;1060;52.492;13.388;2023-09-18T02:11:56;13.03;;;12.10;;
2107;SDS011;1060;52.492;13.388;2023-09-18T02:14:22;11.53;;;10.60;;
2107;SDS011;1060;52.492;13.388;2023-09-18T02:16:48;13.97;;;12.97;;
2107;SDS011;1060;52.492;13.388;2023-09-18T02:19:15;13.77;;;12.67;;
2107;SDS011;1060;52.492;13.388;2023-09-18T02:21:45;13.00;;;11.90;;
2107;SDS011;1060;52.492;13.388;2023-09-18T02:24:14;14.20;;;12.00;;
2107;SDS011;1060;52.492;13.388;2023-09-18T02:26:41;14.20;;;13.20;;
2107;SDS011;1060;52.492;13.388;2023-09-18T02:29:08;13.47;;;12.20;;
2107;SDS011;1060;52.492;13.388;2023-09-18T02:31:39;13.90;;;12.67;;
2107;SDS011;1060;52.492;13.388;2023-09-18T02:34:05;13.50;;;12.43;;
2107;SDS011;1060;52.492;13.388;2023-09-18T02:36:34;13.07;;;12.10;;
2107;SDS011;1060;52.492;13.388;2023-09-18T02:41:44;12.53;;;11.33;;
2107;SDS011;1060;52.492;13.388;2023-09-18T02:44:36;11.83;;;10.93;;
2107;SDS011;1060;52.492;13.388;2023-09-18T02:47:14;12.60;;;11.70;;
2107;SDS011;1060;52.492;13.388;2023-09-18T02:50:34;12.80;;;11.90;;
2107;SDS011;1060;52.492;13.388;2023-09-18T02:53:50;12.90;;;12.00;;
2107;SDS011;1060;52.492;13.388;2023-09-18T02:57:04;14.33;;;13.23;;
2107;SDS011;1060;52.492;13.388;2023-09-18T03:03:46;16.00;;;14.73;;
2107;SDS011;1060;52.492;13.388;2023-09-18T03:06:24;15.20;;;14.00;;
2107;SDS011;1060;52.492;13.388;2023-09-18T03:12:33;15.30;;;13.90;;
2107;SDS011;1060;52.492;13.388;2023-09-18T03:15:13;14.70;;;13.60;;
2107;SDS011;1060;52.492;13.388;2023-09-18T03:17:55;13.73;;;12.50;;
2107;SDS011;1060;52.492;13.388;2023-09-18T03:21:00;13.03;;;12.03;;
2107;SDS011;1060;52.492;13.388;2023-09-18T03:23:26;14.27;;;13.10;;
2107;SDS011;1060;52.492;13.388;2023-09-18T03:26:24;14.93;;;13.73;;
2107;SDS011;1060;52.492;13.388;2023-09-18T03:29:51;14.27;;;13.17;;
2107;SDS011;1060;52.492;13.388;2023-09-18T03:32:37;14.27;;;13.03;;
2107;SDS011;1060;52.492;13.388;2023-09-18T03:35:44;14.07;;;13.10;;
2107;SDS011;1060;52.492;13.388;2023-09-18T03:45:08;13.93;;;12.93;;
2107;SDS011;1060;52.492;13.388;2023-09-18T03:55:29;13.77;;;12.77;;
2107;SDS011;1060;52.492;13.388;2023-09-18T04:18:33;16.80;;;15.40;;
2107;SDS011;1060;52.492;13.388;2023-09-18T04:21:39;14.20;;;13.17;;
2107;SDS011;1060;52.492;13.388;2023-09-18T04:28:09;16.97;;;15.27;;
2107;SDS011;1060;52.492;13.388;2023-09-18T04:33:55;15.20;;;13.90;;
2107;SDS011;1060;52.492;13.388;2023-09-18T04:39:32;15.73;;;14.33;;
2107;SDS011;1060;52.492;13.388;2023-09-18T04:42:19;16.07;;;14.60;;
2107;SDS011;1060;52.492;13.388;2023-09-18T05:32:02;10.80;;;9.70;;
2107;SDS011;1060;52.492;13.388;2023-09-18T06:49:59;11.33;;;10.43;;
2107;SDS011;1060;52.492;13.388;2023-09-18T06:56:37;9.50;;;8.57;;
2107;SDS011;1060;52.492;13.388;2023-09-18T06:59:03;10.87;;;7.63;;
2107;SDS011;1060;52.492;13.388;2023-09-18T07:01:32;9.90;;;9.20;;
2107;SDS011;1060;52.492;13.388;2023-09-18T07:03:59;8.47;;;7.80;;
2107;SDS011;1060;52.492;13.388;2023-09-18T07:06:25;8.87;;;8.27;;
2107;SDS011;1060;52.492;13.388;2023-09-18T07:08:59;8.80;;;7.10;;
2107;SDS011;1060;52.492;13.388;2023-09-18T07:11:30;11.67;;;10.80;;
2107;SDS011;1060;52.492;13.388;2023-09-18T07:14:23;8.50;;;7.80;;
2107;SDS011;1060;52.492;13.388;2023-09-18T07:16:49;10.90;;;8.90;;
2107;SDS011;1060;52.492;13.388;2023-09-18T07:19:21;9.40;;;8.80;;
2107;SDS011;1060;52.492;13.388;2023-09-18T07:21:51;10.27;;;9.23;;
2107;SDS011;1060;52.492;13.388;2023-09-18T07:24:30;9.20;;;8.50;;
2107;SDS011;1060;52.492;13.388;2023-09-18T07:27:10;9.97;;;9.03;;
2107;SDS011;1060;52.492;13.388;2023-09-18T07:29:39;8.23;;;7.63;;
2107;SDS011;1060;52.492;13.388;2023-09-18T07:32:09;11.37;;;8.10;;
2107;SDS011;1060;52.492;13.388;2023-09-18T07:34:39;9.57;;;8.67;;
2107;SDS011;1060;52.492;13.388;2023-09-18T07:37:05;10.33;;;8.83;;
2107;SDS011;1060;52.492;13.388;2023-09-18T07:39:37;9.10;;;8.40;;
2107;SDS011;1060;52.492;13.388;2023-09-18T07:42:10;8.77;;;8.07;;
2107;SDS011;1060;52.492;13.388;2023-09-18T07:44:42;8.53;;;7.87;;
2107;SDS011;1060;52.492;13.388;2023-09-18T07:47:11;9.10;;;8.40;;
2107;SDS011;1060;52.492;13.388;2023-09-18T07:50:00;9.17;;;8.30;;
2107;SDS011;1060;52.492;13.388;2023-09-18T07:52:43;8.70;;;8.10;;
2107;SDS011;1060;52.492;13.388;2023-09-18T07:55:21;9.60;;;8.63;;
2107;SDS011;1060;52.492;13.388;2023-09-18T07:57:47;8.77;;;8.13;;
2107;SDS011;1060;52.492;13.388;2023-09-18T08:00:23;12.80;;;9.00;;
2107;SDS011;1060;52.492;13.388;2023-09-18T08:02:54;7.87;;;7.30;;
2107;SDS011;1060;52.492;13.388;2023-09-18T08:05:48;7.20;;;6.57;;
2107;SDS011;1060;52.492;13.388;2023-09-18T08:08:23;7.47;;;6.97;;
2107;SDS011;1060;52.492;13.388;2023-09-18T08:11:16;7.23;;;6.63;;
2107;SDS011;1060;52.492;13.388;2023-09-18T08:14:09;8.67;;;8.07;;
2107;SDS011;1060;52.492;13.388;2023-09-18T08:16:37;7.43;;;6.93;;
2107;SDS011;1060;52.492;13.388;2023-09-18T08:19:33;8.33;;;7.50;;
2107;SDS011;1060;52.492;13.388;2023-09-18T08:22:07;8.83;;;8.03;;
2107;SDS011;1060;52.492;13.388;2023-09-18T08:24:58;8.13;;;7.47;;
2107;SDS011;1060;52.492;13.388;2023-09-18T08:27:26;7.40;;;6.90;;
2107;SDS011;1060;52.492;13.388;2023-09-18T08:30:21;13.20;;;7.30;;
2107;SDS011;1060;52.492;13.388;2023-09-18T08:32:52;9.37;;;8.50;;
2107;SDS011;1060;52.492;13.388;2023-09-18T08:35:24;7.03;;;6.53;;
2107;SDS011;1060;52.492;13.388;2023-09-18T08:41:14;7.50;;;7.00;;
2107;SDS011;1060;52.492;13.388;2023-09-18T08:43:59;8.60;;;7.10;;
2107;SDS011;1060;52.492;13.388;2023-09-18T08:46:38;7.63;;;5.90;;
2107;SDS011;1060;52.492;13.388;2023-09-18T08:49:29;6.63;;;6.13;;
2107;SDS011;1060;52.492;13.388;2023-09-18T08:52:24;6.30;;;5.80;;
2107;SDS011;1060;52.492;13.388;2023-09-18T08:55:09;7.20;;;6.70;;
2107;SDS011;1060;52.492;13.388;2023-09-18T08:58:06;7.80;;;7.00;;
2107;SDS011;1060;52.492;13.388;2023-09-18T09:00:46;7.37;;;6.77;;
2107;SDS011;1060;52.492;13.388;2023-09-18T09:06:27;6.60;;;6.20;;
2107;SDS011;1060;52.492;13.388;2023-09-18T09:09:26;10.00;;;6.73;;
2107;SDS011;1060;52.492;13.388;2023-09-18T09:15:38;6.27;;;5.77;;
2107;SDS011;1060;52.492;13.388;2023-09-18T09:18:47;6.50;;;6.00;;
2107;SDS011;1060;52.492;13.388;2023-09-18T09:21:54;7.37;;;6.77;;
2107;SDS011;1060;52.492;13.388;2023-09-18T09:28:26;6.10;;;5.70;;
2107;SDS011;1060;52.492;13.388;2023-09-18T09:31:03;8.27;;;7.33;;
2107;SDS011;1060;52.492;13.388;2023-09-18T09:34:28;6.23;;;5.73;;
2107;SDS011;1060;52.492;13.388;2023-09-18T09:40:56;5.20;;;4.80;;
2107;SDS011;1060;52.492;13.388;2023-09-18T09:43:35;5.60;;;5.20;;
2107;SDS011;1060;52.492;13.388;2023-09-18T09:46:50;7.33;;;5.60;;
2107;SDS011;1060;52.492;13.388;2023-09-18T09:53:03;6.60;;;5.97;;
2107;SDS011;1060;52.492;13.388;2023-09-18T09:55:33;6.83;;;6.23;;
2107;SDS011;1060;52.492;13.388;2023-09-18T09:58:06;7.77;;;7.03;;
2107;SDS011;1060;52.492;13.388;2023-09-18T10:01:03;6.30;;;5.80;;
2107;SDS011;1060;52.492;13.388;2023-09-18T10:04:26;8.77;;;5.87;;
2107;SDS011;1060;52.492;13.388;2023-09-18T10:07:34;8.10;;;6.20;;
2107;SDS011;1060;52.492;13.388;2023-09-18T10:14:10;5.40;;;5.00;;
2107;SDS011;1060;52.492;13.388;2023-09-18T10:26:23;9.97;;;9.17;;
2107;SDS011;1060;52.492;13.388;2023-09-18T10:29:02;8.10;;;6.83;;
2107;SDS011;1060;52.492;13.388;2023-09-18T10:32:06;6.10;;;5.60;;
2107;SDS011;1060;52.492;13.388;2023-09-18T10:34:50;7.93;;;5.70;;
2107;SDS011;1060;52.492;13.388;2023-09-18T10:44:29;5.93;;;5.53;;
2107;SDS011;1060;52.492;13.388;2023-09-18T10:47:27;7.33;;;6.63;;
2107;SDS011;1060;52.492;13.388;2023-09-18T10:49:59;6.50;;;5.30;;
2107;SDS011;1060;52.492;13.388;2023-09-18T10:52:56;6.70;;;6.10;;
2107;SDS011;1060;52.492;13.388;2023-09-18T11:02:42;8.57;;;7.70;;
2107;SDS011;1060;52.492;13.388;2023-09-18T11:05:25;6.80;;;6.20;;
2107;SDS011;1060;52.492;13.388;2023-09-18T12:11:07;7.00;;;6.27;;
2107;SDS011;1060;52.492;13.388;2023-09-18T12:13:55;10.93;;;6.50;;
2107;SDS011;1060;52.492;13.388;2023-09-18T12:16:39;7.10;;;5.90;;
2107;SDS011;1060;52.492;13.388;2023-09-18T12:19:57;5.40;;;5.00;;
2107;SDS011;1060;52.492;13.388;2023-09-18T12:22:10;8.77;;;7.40;;
2107;SDS011;1060;52.492;13.388;2023-09-18T12:24:38;8.07;;;7.23;;
2107;SDS011;1060;52.492;13.388;2023-09-18T12:27:05;6.50;;;6.03;;
2107;SDS011;1060;52.492;13.388;2023-09-18T12:29:34;5.97;;;5.47;;
2107;SDS011;1060;52.492;13.388;2023-09-18T12:32:08;6.37;;;5.70;;
2107;SDS011;1060;52.492;13.388;2023-09-18T13:01:26;16.20;;;8.63;;
2107;SDS011;1060;52.492;13.388;2023-09-18T13:04:25;7.70;;;7.00;;
2107;SDS011;1060;52.492;13.388;2023-09-18T13:10:05;8.90;;;8.00;;
2107;SDS011;1060;52.492;13.388;2023-09-18T13:13:00;8.83;;;7.93;;
2107;SDS011;1060;52.492;13.388;2023-09-18T13:18:34;7.07;;;6.40;;
2107;SDS011;1060;52.492;13.388;2023-09-18T13:21:48;10.97;;;8.77;;
2107;SDS011;1060;52.492;13.388;2023-09-18T13:24:43;8.70;;;7.87;;
2107;SDS011;1060;52.492;13.388;2023-09-18T13:50:13;10.77;;;7.07;;
2107;SDS011;1060;52.492;13.388;2023-09-18T13:55:46;10.97;;;7.67;;
2107;SDS011;1060;52.492;13.388;2023-09-18T13:58:21;13.73;;;7.27;;
2107;SDS011;1060;52.492;13.388;2023-09-18T14:07:27;10.13;;;6.90;;
2107;SDS011;1060;52.492;13.388;2023-09-18T14:10:37;7.80;;;5.20;;
2107;SDS011;1060;52.492;13.388;2023-09-18T14:18:30;6.67;;;6.13;;
2107;SDS011;1060;52.492;13.388;2023-09-18T14:21:56;17.93;;;7.17;;
2107;SDS011;1060;52.492;13.388;2023-09-18T14:29:37;9.43;;;8.37;;
2107;SDS011;1060;52.492;13.388;2023-09-18T14:32:52;7.60;;;6.90;;
2107;SDS011;1060;52.492;13.388;2023-09-18T14:38:40;7.27;;;6.37;;
2107;SDS011;1060;52.492;13.388;2023-09-18T15:45:50;8.30;;;3.13;;
2107;SDS011;1060;52.492;13.388;2023-09-18T15:48:52;6.60;;;4.37;;
2107;SDS011;1060;52.492;13.388;2023-09-18T15:52:04;4.80;;;4.37;;
2107;SDS011;1060;52.492;13.388;2023-09-18T15:55:20;6.20;;;4.23;;
2107;SDS011;1060;52.492;13.388;2023-09-18T15:57:58;6.63;;;4.07;;
2107;SDS011;1060;52.492;13.388;2023-09-18T16:00:28;6.90;;;4.47;;
2107;SDS011;1060;52.492;13.388;2023-09-18T16:02:54;8.53;;;4.50;;
2107;SDS011;1060;52.492;13.388;2023-09-18T16:05:21;8.03;;;5.23;;
2107;SDS011;1060;52.492;13.388;2023-09-18T16:07:53;10.00;;;5.23;;
2107;SDS011;1060;52.492;13.388;2023-09-18T16:10:29;6.10;;;4.83;;
2107;SDS011;1060;52.492;13.388;2023-09-18T16:12:58;5.70;;;3.83;;
2107;SDS011;1060;52.492;13.388;2023-09-18T16:15:25;12.60;;;5.20;;
2107;SDS011;1060;52.492;13.388;2023-09-18T16:17:59;6.60;;;6.00;;
2107;SDS011;1060;52.492;13.388;2023-09-18T16:20:29;8.40;;;5.27;;
2107;SDS011;1060;52.492;13.388;2023-09-18T16:22:56;8.70;;;5.47;;
2107;SDS011;1060;52.492;13.388;2023-09-18T16:25:22;8.53;;;5.20;;
2107;SDS011;1060;52.492;13.388;2023-09-18T16:28:03;8.40;;;6.80;;
2107;SDS011;1060;52.492;13.388;2023-09-18T16:30:31;6.20;;;4.87;;
2107;SDS011;1060;52.492;13.388;2023-09-18T16:32:59;7.83;;;4.87;;
2107;SDS011;1060;52.492;13.388;2023-09-18T16:35:26;7.20;;;6.33;;
2107;SDS011;1060;52.492;13.388;2023-09-18T16:37:52;7.00;;;4.73;;
2107;SDS011;1060;52.492;13.388;2023-09-18T16:40:20;10.57;;;6.00;;
2107;SDS011;1060;52.492;13.388;2023-09-18T16:42:46;8.07;;;6.37;;
2107;SDS011;1060;52.492;13.388;2023-09-18T16:45:12;5.50;;;5.10;;
2107;SDS011;1060;52.492;13.388;2023-09-18T16:47:39;9.17;;;6.07;;
2107;SDS011;1060;52.492;13.388;2023-09-18T16:50:05;8.10;;;6.13;;
2107;SDS011;1060;52.492;13.388;2023-09-18T16:52:32;8.90;;;6.07;;
2107;SDS011;1060;52.492;13.388;2023-09-18T16:55:01;9.03;;;6.10;;
2107;SDS011;1060;52.492;13.388;2023-09-18T16:57:29;8.83;;;7.50;;
2107;SDS011;1060;52.492;13.388;2023-09-18T16:59:57;7.03;;;6.33;;
2107;SDS011;1060;52.492;13.388;2023-09-18T17:02:25;7.50;;;5.40;;
2107;SDS011;1060;52.492;13.388;2023-09-18T17:04:52;15.27;;;8.00;;
2107;SDS011;1060;52.492;13.388;2023-09-18T17:07:19;8.57;;;7.80;;
2107;SDS011;1060;52.492;13.388;2023-09-18T17:09:49;12.57;;;5.77;;
2107;SDS011;1060;52.492;13.388;2023-09-18T17:12:17;9.30;;;6.13;;
2107;SDS011;1060;52.492;13.388;2023-09-18T17:14:44;11.10;;;7.27;;
2107;SDS011;1060;52.492;13.388;2023-09-18T17:17:10;7.30;;;6.33;;
2107;SDS011;1060;52.492;13.388;2023-09-18T17:19:42;6.30;;;5.70;;
2107;SDS011;1060;52.492;13.388;2023-09-18T17:22:11;9.73;;;5.60;;
2107;SDS011;1060;52.492;13.388;2023-09-18T17:24:40;7.10;;;6.40;;
2107;SDS011;1060;52.492;13.388;2023-09-18T17:27:06;7.97;;;6.27;;
2107;SDS011;1060;52.492;13.388;2023-09-18T17:29:33;6.27;;;5.50;;
2107;SDS011;1060;52.492;13.388;2023-09-18T17:32:00;6.97;;;6.27;;
2107;SDS011;1060;52.492;13.388;2023-09-18T17:34:28;10.00;;;5.93;;
2107;SDS011;1060;52.492;13.388;2023-09-18T17:39:47;6.17;;;5.20;;
2107;SDS011;1060;52.492;13.388;2023-09-18T17:42:13;5.07;;;4.57;;
2107;SDS011;1060;52.492;13.388;2023-09-18T17:44:46;7.03;;;6.40;;
2107;SDS011;1060;52.492;13.388;2023-09-18T17:47:36;7.60;;;5.67;;
2107;SDS011;1060;52.492;13.388;2023-09-18T17:50:07;8.60;;;7.77;;
2107;SDS011;1060;52.492;13.388;2023-09-18T18:14:06;7.23;;;5.03;;
2107;SDS011;1060;52.492;13.388;2023-09-18T18:20:43;6.53;;;5.77;;
2107;SDS011;1060;52.492;13.388;2023-09-18T18:23:13;6.80;;;6.10;;
2107;SDS011;1060;52.492;13.388;2023-09-18T18:25:58;14.40;;;6.97;;
2107;SDS011;1060;52.492;13.388;2023-09-18T18:28:24;5.47;;;5.00;;
2107;SDS011;1060;52.492;13.388;2023-09-18T18:30:56;5.77;;;5.17;;
2107;SDS011;1060;52.492;13.388;2023-09-18T18:33:25;7.73;;;5.80;;
2107;SDS011;1060;52.492;13.388;2023-09-18T18:36:06;9.37;;;5.93;;
2107;SDS011;1060;52.492;13.388;2023-09-18T18:38:36;6.17;;;5.57;;
2107;SDS011;1060;52.492;13.388;2023-09-18T18:41:02;9.90;;;8.90;;
2107;SDS011;1060;52.492;13.388;2023-09-18T18:43:41;8.50;;;5.40;;
2107;SDS011;1060;52.492;13.388;2023-09-18T18:46:17;8.47;;;5.90;;
2107;SDS011;1060;52.492;13.388;2023-09-18T18:48:56;8.50;;;4.80;;
2107;SDS011;1060;52.492;13.388;2023-09-18T18:51:28;5.57;;;4.80;;
2107;SDS011;1060;52.492;13.388;2023-09-18T18:54:00;6.53;;;4.57;;
2107;SDS011;1060;52.492;13.388;2023-09-18T18:56:28;5.90;;;5.37;;
2107;SDS011;1060;52.492;13.388;2023-09-18T18:58:55;6.53;;;4.30;;
2107;SDS011;1060;52.492;13.388;2023-09-18T19:01:22;10.10;;;9.10;;
2107;SDS011;1060;52.492;13.388;2023-09-18T19:03:50;5.73;;;4.77;;
2107;SDS011;1060;52.492;13.388;2023-09-18T19:06:35;40.57;;;31.70;;
2107;SDS011;1060;52.492;13.388;2023-09-18T19:09:07;9.23;;;7.63;;
2107;SDS011;1060;52.492;13.388;2023-09-18T19:11:34;9.57;;;5.10;;
2107;SDS011;1060;52.492;13.388;2023-09-18T19:14:11;13.10;;;11.50;;
2107;SDS011;1060;52.492;13.388;2023-09-18T19:16:49;5.43;;;4.30;;
2107;SDS011;1060;52.492;13.388;2023-09-18T19:19:52;10.60;;;5.30;;
2107;SDS011;1060;52.492;13.388;2023-09-18T19:23:03;4.60;;;4.03;;
2107;SDS011;1060;52.492;13.388;2023-09-18T19:26:03;5.83;;;4.10;;
2107;SDS011;1060;52.492;13.388;2023-09-18T19:28:49;5.57;;;4.63;;
2107;SDS011;1060;52.492;13.388;2023-09-18T19:35:09;6.83;;;6.13;;
2107;SDS011;1060;52.492;13.388;2023-09-18T19:37:49;5.30;;;4.80;;
2107;SDS011;1060;52.492;13.388;2023-09-18T19:47:34;10.03;;;4.83;;
2107;SDS011;1060;52.492;13.388;2023-09-18T19:50:31;6.73;;;6.13;;
2107;SDS011;1060;52.492;13.388;2023-09-18T19:53:45;6.27;;;4.03;;
2107;SDS011;1060;52.492;13.388;2023-09-18T19:56:34;9.10;;;4.40;;
2107;SDS011;1060;52.492;13.388;2023-09-18T20:07:26;7.43;;;4.33;;
2107;SDS011;1060;52.492;13.388;2023-09-18T20:10:10;6.87;;;4.67;;
2107;SDS011;1060;52.492;13.388;2023-09-18T20:13:02;8.37;;;7.33;;
2107;SDS011;1060;52.492;13.388;2023-09-18T20:22:00;5.50;;;4.97;;
2107;SDS011;1060;52.492;13.388;2023-09-18T20:24:56;7.30;;;6.50;;
2107;SDS011;1060;52.492;13.388;2023-09-18T20:27:36;7.73;;;4.53;;
2107;SDS011;1060;52.492;13.388;2023-09-18T20:30:33;5.83;;;4.63;;
2107;SDS011;1060;52.492;13.388;2023-09-18T20:33:19;7.63;;;6.57;;
2107;SDS011;1060;52.492;13.388;2023-09-18T20:35:50;10.03;;;7.20;;
2107;SDS011;1060;52.492;13.388;2023-09-18T20:39:01;9.37;;;5.80;;
2107;SDS011;1060;52.492;13.388;2023-09-18T20:41:21;6.20;;;4.23;;
2107;SDS011;1060;52.492;13.388;2023-09-18T20:43:56;8.53;;;5.60;;
2107;SDS011;1060;52.492;13.388;2023-09-18T20:46:30;4.87;;;4.33;;
2107;SDS011;1060;52.492;13.388;2023-09-18T20:49:05;8.10;;;4.17;;
2107;SDS011;1060;52.492;13.388;2023-09-18T20:55:12;5.13;;;4.53;;
2107;SDS011;1060;52.492;13.388;2023-09-18T20:58:08;6.83;;;5.50;;
2107;SDS011;1060;52.492;13.388;2023-09-18T21:01:13;5.90;;;4.70;;
2107;SDS011;1060;52.492;13.388;2023-09-18T21:03:59;6.13;;;3.60;;
2107;SDS011;1060;52.492;13.388;2023-09-18T21:25:28;5.30;;;3.47;;
2107;SDS011;1060;52.492;13.388;2023-09-18T21:28:03;8.50;;;7.20;;
2107;SDS011;1060;52.492;13.388;2023-09-18T21:33:33;10.63;;;7.60;;
2107;SDS011;1060;52.492;13.388;2023-09-18T21:36:26;4.67;;;4.13;;
2107;SDS011;1060;52.492;13.388;2023-09-18T21:39:08;7.30;;;4.33;;
2107;SDS011;1060;52.492;13.388;2023-09-18T21:41:50;13.53;;;8.47;;
2107;SDS011;1060;52.492;13.388;2023-09-18T21:47:49;7.63;;;6.10;;
2107;SDS011;1060;52.492;13.388;2023-09-18T21:50:41;5.97;;;3.87;;
2107;SDS011;1060;52.492;13.388;2023-09-18T21:53:16;6.80;;;6.10;;
2107;SDS011;1060;52.492;13.388;2023-09-18T21:56:43;10.20;;;8.20;;
2107;SDS011;1060;52.492;13.388;2023-09-18T21:58:43;4.13;;;3.73;;
2107;SDS011;1060;52.492;13.388;2023-09-18T22:01:37;3.23;;;2.93;;
2107;SDS011;1060;52.492;13.388;2023-09-18T22:04:33;7.90;;;7.10;;
2107;SDS011;1060;52.492;13.388;2023-09-18T22:07:45;4.10;;;3.43;;
2107;SDS011;1060;52.492;13.388;2023-09-18T22:17:03;3.00;;;2.80;;
2107;SDS011;1060;52.492;13.388;2023-09-18T22:19:47;3.63;;;3.33;;
2107;SDS011;1060;52.492;13.388;2023-09-18T22:22:19;5.60;;;4.10;;
2107;SDS011;1060;52.492;13.388;2023-09-18T22:25:07;3.63;;;3.17;;
2107;SDS011;1060;52.492;13.388;2023-09-18T22:28:02;4.30;;;3.90;;
2107;SDS011;1060;52.492;13.388;2023-09-18T22:31:26;6.23;;;4.40;;
2107;SDS011;1060;52.492;13.388;2023-09-18T22:37:45;4.53;;;3.70;;
2107;SDS011;1060;52.492;13.388;2023-09-18T22:55:36;5.00;;;4.17;;
2107;SDS011;1060;52.492;13.388;2023-09-18T22:58:33;5.97;;;2.87;;
2107;SDS011;1060;52.492;13.388;2023-09-18T23:01:15;7.13;;;4.03;;
2107;SDS011;1060;52.492;13.388;2023-09-18T23:03:52;4.30;;;3.23;;
2107;SDS011;1060;52.492;13.388;2023-09-18T23:06:24;4.67;;;3.07;;
2107;SDS011;1060;52.492;13.388;2023-09-18T23:08:59;4.40;;;4.00;;
2107;SDS011;1060;52.492;13.388;2023-09-18T23:11:33;4.30;;;3.17;;
2107;SDS011;1060;52.492;13.388;2023-09-18T23:14:02;6.60;;;4.53;;
2107;SDS011;1060;52.492;13.388;2023-09-18T23:16:35;4.87;;;3.17;;
2107;SDS011;1060;52.492;13.388;2023-09-18T23:19:07;5.60;;;5.10;;
2107;SDS011;1060;52.492;13.388;2023-09-18T23:21:34;4.17;;;3.00;;
2107;SDS011;1060;52.492;13.388;2023-09-18T23:24:01;6.43;;;4.70;;
2107;SDS011;1060;52.492;13.388;2023-09-18T23:26:30;6.33;;;3.20;;
2107;SDS011;1060;52.492;13.388;2023-09-18T23:29:02;6.00;;;3.40;;
2107;SDS011;1060;52.492;13.388;2023-09-18T23:31:39;4.73;;;3.53;;
2107;SDS011;1060;52.492;13.388;2023-09-18T23:34:26;3.63;;;3.13;;
2107;SDS011;1060;52.492;13.388;2023-09-18T23:36:59;4.27;;;2.90;;
2107;SDS011;1060;52.492;13.388;2023-09-18T23:39:43;5.40;;;4.23;;
2107;SDS011;1060;52.492;13.388;2023-09-18T23:50:24;6.50;;;5.10;;
2107;SDS011;1060;52.492;13.388;2023-09-18T23:52:46;3.57;;;3.07;;
2107;SDS011;1060;52.492;13.388;2023-09-18T23:58:53;11.70;;;8.80;;
